sensor_id;sensor_type;location;lat;lon;timestamp;P1;durP1;ratioP1;P2;durP2;ratioP2
56413;SDS011;42318;48.452;19.526;2023-12-20T00:02:22;10.27;;;5.07;;
56413;SDS011;42318;48.452;19.526;2023-12-20T00:05:22;6.25;;;4.30;;
56413;SDS011;42318;48.452;19.526;2023-12-20T00:08:23;7.50;;;5.22;;
56413;SDS011;42318;48.452;19.526;2023-12-20T00:11:24;8.23;;;4.63;;
56413;SDS011;42318;48.452;19.526;2023-12-20T00:14:25;7.72;;;4.55;;
56413;SDS011;42318;48.452;19.526;2023-12-20T00:17:25;8.10;;;4.47;;
56413;SDS011;42318;48.452;19.526;2023-12-20T00:20:26;6.82;;;4.00;;
56413;SDS011;42318;48.452;19.526;2023-12-20T00:23:27;7.18;;;3.85;;
56413;SDS011;42318;48.452;19.526;2023-12-20T00:26:28;6.10;;;4.07;;
56413;SDS011;42318;48.452;19.526;2023-12-20T00:29:29;7.47;;;4.55;;
56413;SDS011;42318;48.452;19.526;2023-12-20T00:32:29;7.05;;;4.00;;
56413;SDS011;42318;48.452;19.526;2023-12-20T00:35:30;7.53;;;4.10;;
56413;SDS011;42318;48.452;19.526;2023-12-20T00:38:32;6.28;;;3.95;;
56413;SDS011;42318;48.452;19.526;2023-12-20T00:41:32;6.25;;;4.05;;
56413;SDS011;42318;48.452;19.526;2023-12-20T00:44:33;7.05;;;4.18;;
56413;SDS011;42318;48.452;19.526;2023-12-20T00:47:33;8.55;;;4.40;;
56413;SDS011;42318;48.452;19.526;2023-12-20T00:50:34;5.88;;;4.18;;
56413;SDS011;42318;48.452;19.526;2023-12-20T00:53:34;7.45;;;4.72;;
56413;SDS011;42318;48.452;19.526;2023-12-20T00:56:35;6.55;;;4.93;;
56413;SDS011;42318;48.452;19.526;2023-12-20T00:59:36;6.47;;;4.07;;
56413;SDS011;42318;48.452;19.526;2023-12-20T01:02:36;7.65;;;4.22;;
56413;SDS011;42318;48.452;19.526;2023-12-20T01:05:37;5.88;;;3.80;;
56413;SDS011;42318;48.452;19.526;2023-12-20T01:08:38;6.10;;;3.55;;
56413;SDS011;42318;48.452;19.526;2023-12-20T01:11:38;6.20;;;4.07;;
56413;SDS011;42318;48.452;19.526;2023-12-20T01:14:39;7.43;;;4.30;;
56413;SDS011;42318;48.452;19.526;2023-12-20T01:17:40;5.75;;;3.80;;
56413;SDS011;42318;48.452;19.526;2023-12-20T01:20:40;6.18;;;4.07;;
56413;SDS011;42318;48.452;19.526;2023-12-20T01:23:41;7.13;;;3.90;;
56413;SDS011;42318;48.452;19.526;2023-12-20T01:26:42;5.60;;;4.10;;
56413;SDS011;42318;48.452;19.526;2023-12-20T01:29:42;6.13;;;3.95;;
56413;SDS011;42318;48.452;19.526;2023-12-20T01:32:43;6.15;;;3.75;;
56413;SDS011;42318;48.452;19.526;2023-12-20T01:35:43;5.22;;;3.97;;
56413;SDS011;42318;48.452;19.526;2023-12-20T01:38:44;6.10;;;3.80;;
56413;SDS011;42318;48.452;19.526;2023-12-20T01:41:45;6.97;;;4.22;;
56413;SDS011;42318;48.452;19.526;2023-12-20T01:44:47;5.88;;;3.92;;
56413;SDS011;42318;48.452;19.526;2023-12-20T01:47:48;5.47;;;3.85;;
56413;SDS011;42318;48.452;19.526;2023-12-20T01:50:48;4.75;;;3.63;;
56413;SDS011;42318;48.452;19.526;2023-12-20T01:53:49;6.53;;;3.92;;
56413;SDS011;42318;48.452;19.526;2023-12-20T01:56:50;6.47;;;3.58;;
56413;SDS011;42318;48.452;19.526;2023-12-20T01:59:51;6.95;;;3.30;;
56413;SDS011;42318;48.452;19.526;2023-12-20T02:02:53;5.85;;;3.75;;
56413;SDS011;42318;48.452;19.526;2023-12-20T02:05:54;5.72;;;3.80;;
56413;SDS011;42318;48.452;19.526;2023-12-20T02:08:55;4.70;;;3.28;;
56413;SDS011;42318;48.452;19.526;2023-12-20T02:11:55;6.97;;;4.05;;
56413;SDS011;42318;48.452;19.526;2023-12-20T02:14:56;6.03;;;3.42;;
56413;SDS011;42318;48.452;19.526;2023-12-20T02:17:57;5.50;;;3.55;;
56413;SDS011;42318;48.452;19.526;2023-12-20T02:20:58;8.05;;;3.70;;
56413;SDS011;42318;48.452;19.526;2023-12-20T02:23:58;5.38;;;3.60;;
56413;SDS011;42318;48.452;19.526;2023-12-20T02:26:59;6.82;;;4.38;;
56413;SDS011;42318;48.452;19.526;2023-12-20T02:29:59;5.53;;;3.78;;
56413;SDS011;42318;48.452;19.526;2023-12-20T02:33:00;5.70;;;3.67;;
56413;SDS011;42318;48.452;19.526;2023-12-20T02:36:01;6.28;;;3.72;;
56413;SDS011;42318;48.452;19.526;2023-12-20T02:39:02;5.13;;;3.70;;
56413;SDS011;42318;48.452;19.526;2023-12-20T02:42:03;5.45;;;3.63;;
56413;SDS011;42318;48.452;19.526;2023-12-20T02:45:04;5.30;;;3.20;;
56413;SDS011;42318;48.452;19.526;2023-12-20T02:48:05;5.95;;;3.80;;
56413;SDS011;42318;48.452;19.526;2023-12-20T02:51:06;4.78;;;3.28;;
56413;SDS011;42318;48.452;19.526;2023-12-20T02:54:06;4.35;;;3.17;;
56413;SDS011;42318;48.452;19.526;2023-12-20T02:57:07;5.00;;;2.83;;
56413;SDS011;42318;48.452;19.526;2023-12-20T03:00:08;3.95;;;3.17;;
56413;SDS011;42318;48.452;19.526;2023-12-20T03:03:10;4.82;;;3.40;;
56413;SDS011;42318;48.452;19.526;2023-12-20T03:06:10;4.30;;;3.03;;
56413;SDS011;42318;48.452;19.526;2023-12-20T03:09:11;4.80;;;3.17;;
56413;SDS011;42318;48.452;19.526;2023-12-20T03:12:11;6.47;;;3.67;;
56413;SDS011;42318;48.452;19.526;2023-12-20T03:15:12;4.78;;;3.63;;
56413;SDS011;42318;48.452;19.526;2023-12-20T03:18:13;4.97;;;3.00;;
56413;SDS011;42318;48.452;19.526;2023-12-20T03:21:16;4.38;;;3.13;;
56413;SDS011;42318;48.452;19.526;2023-12-20T03:24:17;5.60;;;3.33;;
56413;SDS011;42318;48.452;19.526;2023-12-20T03:27:18;4.93;;;3.30;;
56413;SDS011;42318;48.452;19.526;2023-12-20T03:30:18;4.93;;;3.28;;
56413;SDS011;42318;48.452;19.526;2023-12-20T03:33:19;5.10;;;3.60;;
56413;SDS011;42318;48.452;19.526;2023-12-20T03:36:20;4.63;;;3.15;;
56413;SDS011;42318;48.452;19.526;2023-12-20T03:39:21;5.53;;;3.50;;
56413;SDS011;42318;48.452;19.526;2023-12-20T03:42:21;5.60;;;3.40;;
56413;SDS011;42318;48.452;19.526;2023-12-20T03:45:22;4.75;;;3.63;;
56413;SDS011;42318;48.452;19.526;2023-12-20T03:48:23;4.97;;;2.95;;
56413;SDS011;42318;48.452;19.526;2023-12-20T03:51:23;3.72;;;3.00;;
56413;SDS011;42318;48.452;19.526;2023-12-20T03:54:24;5.40;;;2.83;;
56413;SDS011;42318;48.452;19.526;2023-12-20T03:57:25;4.28;;;2.78;;
56413;SDS011;42318;48.452;19.526;2023-12-20T04:00:25;4.05;;;2.75;;
56413;SDS011;42318;48.452;19.526;2023-12-20T04:03:26;4.43;;;2.97;;
56413;SDS011;42318;48.452;19.526;2023-12-20T04:06:27;5.03;;;3.17;;
56413;SDS011;42318;48.452;19.526;2023-12-20T04:09:28;4.88;;;3.45;;
56413;SDS011;42318;48.452;19.526;2023-12-20T04:12:29;5.40;;;3.53;;
56413;SDS011;42318;48.452;19.526;2023-12-20T04:15:30;4.70;;;3.28;;
56413;SDS011;42318;48.452;19.526;2023-12-20T04:18:30;3.95;;;3.03;;
56413;SDS011;42318;48.452;19.526;2023-12-20T04:21:32;4.65;;;2.90;;
56413;SDS011;42318;48.452;19.526;2023-12-20T04:24:32;4.40;;;3.22;;
56413;SDS011;42318;48.452;19.526;2023-12-20T04:27:33;4.50;;;3.13;;
56413;SDS011;42318;48.452;19.526;2023-12-20T04:30:34;3.97;;;2.65;;
56413;SDS011;42318;48.452;19.526;2023-12-20T04:33:35;6.88;;;3.10;;
56413;SDS011;42318;48.452;19.526;2023-12-20T04:36:36;4.68;;;3.20;;
56413;SDS011;42318;48.452;19.526;2023-12-20T04:39:36;4.25;;;3.05;;
56413;SDS011;42318;48.452;19.526;2023-12-20T04:42:37;5.40;;;3.13;;
56413;SDS011;42318;48.452;19.526;2023-12-20T04:45:38;3.70;;;2.92;;
56413;SDS011;42318;48.452;19.526;2023-12-20T04:48:38;4.32;;;2.80;;
56413;SDS011;42318;48.452;19.526;2023-12-20T04:51:39;5.03;;;2.83;;
56413;SDS011;42318;48.452;19.526;2023-12-20T04:54:39;4.50;;;3.10;;
56413;SDS011;42318;48.452;19.526;2023-12-20T04:57:40;4.90;;;3.17;;
56413;SDS011;42318;48.452;19.526;2023-12-20T05:00:41;4.13;;;2.88;;
56413;SDS011;42318;48.452;19.526;2023-12-20T05:03:41;5.15;;;3.40;;
56413;SDS011;42318;48.452;19.526;2023-12-20T05:06:42;5.90;;;3.20;;
56413;SDS011;42318;48.452;19.526;2023-12-20T05:09:43;6.03;;;3.17;;
56413;SDS011;42318;48.452;19.526;2023-12-20T05:12:43;4.53;;;3.50;;
56413;SDS011;42318;48.452;19.526;2023-12-20T05:15:44;4.55;;;2.70;;
56413;SDS011;42318;48.452;19.526;2023-12-20T05:18:45;5.50;;;3.20;;
56413;SDS011;42318;48.452;19.526;2023-12-20T05:21:46;5.35;;;3.28;;
56413;SDS011;42318;48.452;19.526;2023-12-20T05:24:46;6.55;;;3.33;;
56413;SDS011;42318;48.452;19.526;2023-12-20T05:27:47;7.45;;;3.15;;
56413;SDS011;42318;48.452;19.526;2023-12-20T05:30:48;9.43;;;3.20;;
56413;SDS011;42318;48.452;19.526;2023-12-20T05:33:49;9.90;;;2.95;;
56413;SDS011;42318;48.452;19.526;2023-12-20T05:36:49;5.13;;;3.00;;
56413;SDS011;42318;48.452;19.526;2023-12-20T05:39:50;5.63;;;2.70;;
56413;SDS011;42318;48.452;19.526;2023-12-20T05:42:51;5.70;;;3.30;;
56413;SDS011;42318;48.452;19.526;2023-12-20T05:45:51;9.98;;;3.08;;
56413;SDS011;42318;48.452;19.526;2023-12-20T05:48:52;4.85;;;3.10;;
56413;SDS011;42318;48.452;19.526;2023-12-20T05:51:53;5.22;;;2.80;;
56413;SDS011;42318;48.452;19.526;2023-12-20T05:54:54;4.45;;;2.92;;
56413;SDS011;42318;48.452;19.526;2023-12-20T05:57:56;4.53;;;2.63;;
56413;SDS011;42318;48.452;19.526;2023-12-20T06:00:56;5.80;;;2.80;;
56413;SDS011;42318;48.452;19.526;2023-12-20T06:03:57;6.47;;;3.47;;
56413;SDS011;42318;48.452;19.526;2023-12-20T06:06:58;4.20;;;2.60;;
56413;SDS011;42318;48.452;19.526;2023-12-20T06:09:59;4.85;;;2.65;;
56413;SDS011;42318;48.452;19.526;2023-12-20T06:13:00;6.30;;;3.03;;
56413;SDS011;42318;48.452;19.526;2023-12-20T06:16:01;5.40;;;3.42;;
56413;SDS011;42318;48.452;19.526;2023-12-20T06:19:02;6.32;;;3.10;;
56413;SDS011;42318;48.452;19.526;2023-12-20T06:22:02;3.58;;;3.00;;
56413;SDS011;42318;48.452;19.526;2023-12-20T06:25:03;6.15;;;3.78;;
56413;SDS011;42318;48.452;19.526;2023-12-20T06:28:05;4.40;;;3.00;;
56413;SDS011;42318;48.452;19.526;2023-12-20T06:31:05;5.35;;;3.53;;
56413;SDS011;42318;48.452;19.526;2023-12-20T06:34:06;3.83;;;2.95;;
56413;SDS011;42318;48.452;19.526;2023-12-20T06:37:06;5.15;;;3.40;;
56413;SDS011;42318;48.452;19.526;2023-12-20T06:40:08;5.65;;;4.05;;
56413;SDS011;42318;48.452;19.526;2023-12-20T06:43:10;4.95;;;3.22;;
56413;SDS011;42318;48.452;19.526;2023-12-20T06:46:11;5.10;;;3.13;;
56413;SDS011;42318;48.452;19.526;2023-12-20T06:49:13;4.78;;;3.10;;
56413;SDS011;42318;48.452;19.526;2023-12-20T06:52:14;5.25;;;2.83;;
56413;SDS011;42318;48.452;19.526;2023-12-20T06:55:14;5.85;;;3.28;;
56413;SDS011;42318;48.452;19.526;2023-12-20T06:58:15;4.25;;;2.95;;
56413;SDS011;42318;48.452;19.526;2023-12-20T07:01:16;4.70;;;3.00;;
56413;SDS011;42318;48.452;19.526;2023-12-20T07:04:17;5.57;;;3.03;;
56413;SDS011;42318;48.452;19.526;2023-12-20T07:07:20;5.50;;;3.10;;
56413;SDS011;42318;48.452;19.526;2023-12-20T07:10:21;4.22;;;3.08;;
56413;SDS011;42318;48.452;19.526;2023-12-20T07:13:22;4.47;;;2.97;;
56413;SDS011;42318;48.452;19.526;2023-12-20T07:16:23;4.93;;;3.00;;
56413;SDS011;42318;48.452;19.526;2023-12-20T07:19:24;3.72;;;2.85;;
56413;SDS011;42318;48.452;19.526;2023-12-20T07:22:25;5.43;;;3.78;;
56413;SDS011;42318;48.452;19.526;2023-12-20T07:25:26;5.03;;;3.35;;
56413;SDS011;42318;48.452;19.526;2023-12-20T07:28:27;4.97;;;3.45;;
56413;SDS011;42318;48.452;19.526;2023-12-20T07:31:27;4.60;;;3.28;;
56413;SDS011;42318;48.452;19.526;2023-12-20T07:34:28;6.63;;;3.55;;
56413;SDS011;42318;48.452;19.526;2023-12-20T07:37:28;3.95;;;3.05;;
56413;SDS011;42318;48.452;19.526;2023-12-20T07:40:29;4.13;;;3.22;;
56413;SDS011;42318;48.452;19.526;2023-12-20T07:43:29;5.00;;;3.20;;
56413;SDS011;42318;48.452;19.526;2023-12-20T07:46:30;4.53;;;3.10;;
56413;SDS011;42318;48.452;19.526;2023-12-20T07:49:31;4.22;;;3.05;;
56413;SDS011;42318;48.452;19.526;2023-12-20T07:52:32;4.88;;;3.20;;
56413;SDS011;42318;48.452;19.526;2023-12-20T07:55:32;4.82;;;3.10;;
56413;SDS011;42318;48.452;19.526;2023-12-20T07:58:33;4.97;;;3.55;;
56413;SDS011;42318;48.452;19.526;2023-12-20T08:01:34;4.38;;;3.15;;
56413;SDS011;42318;48.452;19.526;2023-12-20T08:04:34;4.13;;;3.00;;
56413;SDS011;42318;48.452;19.526;2023-12-20T08:07:35;4.43;;;2.97;;
56413;SDS011;42318;48.452;19.526;2023-12-20T08:10:36;3.95;;;2.92;;
56413;SDS011;42318;48.452;19.526;2023-12-20T08:13:36;5.22;;;3.47;;
56413;SDS011;42318;48.452;19.526;2023-12-20T08:16:37;4.53;;;3.28;;
56413;SDS011;42318;48.452;19.526;2023-12-20T08:19:38;5.38;;;3.17;;
56413;SDS011;42318;48.452;19.526;2023-12-20T08:22:38;4.28;;;3.15;;
56413;SDS011;42318;48.452;19.526;2023-12-20T08:25:39;6.35;;;3.63;;
56413;SDS011;42318;48.452;19.526;2023-12-20T08:28:39;5.43;;;3.47;;
56413;SDS011;42318;48.452;19.526;2023-12-20T08:31:40;6.15;;;4.22;;
56413;SDS011;42318;48.452;19.526;2023-12-20T08:34:41;5.57;;;3.53;;
56413;SDS011;42318;48.452;19.526;2023-12-20T08:37:42;5.95;;;4.00;;
56413;SDS011;42318;48.452;19.526;2023-12-20T08:40:44;5.40;;;3.50;;
56413;SDS011;42318;48.452;19.526;2023-12-20T08:43:45;5.28;;;3.58;;
56413;SDS011;42318;48.452;19.526;2023-12-20T08:46:45;6.28;;;3.35;;
56413;SDS011;42318;48.452;19.526;2023-12-20T08:49:46;6.05;;;4.13;;
56413;SDS011;42318;48.452;19.526;2023-12-20T08:52:47;5.15;;;3.72;;
56413;SDS011;42318;48.452;19.526;2023-12-20T08:55:47;4.22;;;3.20;;
56413;SDS011;42318;48.452;19.526;2023-12-20T08:58:48;6.65;;;3.47;;
56413;SDS011;42318;48.452;19.526;2023-12-20T09:01:48;6.22;;;4.00;;
56413;SDS011;42318;48.452;19.526;2023-12-20T09:04:54;6.88;;;4.45;;
56413;SDS011;42318;48.452;19.526;2023-12-20T09:07:55;5.95;;;3.67;;
56413;SDS011;42318;48.452;19.526;2023-12-20T09:10:56;5.35;;;4.10;;
56413;SDS011;42318;48.452;19.526;2023-12-20T09:13:57;5.53;;;3.78;;
56413;SDS011;42318;48.452;19.526;2023-12-20T09:16:58;6.35;;;3.88;;
56413;SDS011;42318;48.452;19.526;2023-12-20T09:19:58;5.68;;;3.83;;
56413;SDS011;42318;48.452;19.526;2023-12-20T09:23:00;4.85;;;3.47;;
56413;SDS011;42318;48.452;19.526;2023-12-20T09:26:01;4.93;;;3.47;;
56413;SDS011;42318;48.452;19.526;2023-12-20T09:29:01;6.40;;;4.20;;
56413;SDS011;42318;48.452;19.526;2023-12-20T09:32:02;5.28;;;3.22;;
56413;SDS011;42318;48.452;19.526;2023-12-20T09:35:03;5.38;;;3.55;;
56413;SDS011;42318;48.452;19.526;2023-12-20T09:38:06;8.05;;;3.60;;
56413;SDS011;42318;48.452;19.526;2023-12-20T09:41:06;7.13;;;4.55;;
56413;SDS011;42318;48.452;19.526;2023-12-20T09:44:07;8.85;;;3.78;;
56413;SDS011;42318;48.452;19.526;2023-12-20T09:47:13;7.18;;;4.00;;
56413;SDS011;42318;48.452;19.526;2023-12-20T09:50:17;8.05;;;4.22;;
56413;SDS011;42318;48.452;19.526;2023-12-20T09:53:19;6.80;;;3.78;;
56413;SDS011;42318;48.452;19.526;2023-12-20T09:56:23;6.80;;;4.60;;
56413;SDS011;42318;48.452;19.526;2023-12-20T09:59:25;8.07;;;4.13;;
56413;SDS011;42318;48.452;19.526;2023-12-20T10:02:26;5.68;;;4.10;;
56413;SDS011;42318;48.452;19.526;2023-12-20T10:05:31;7.93;;;4.00;;
56413;SDS011;42318;48.452;19.526;2023-12-20T10:08:32;7.07;;;3.80;;
56413;SDS011;42318;48.452;19.526;2023-12-20T10:11:34;7.53;;;4.35;;
56413;SDS011;42318;48.452;19.526;2023-12-20T10:14:38;11.48;;;4.63;;
56413;SDS011;42318;48.452;19.526;2023-12-20T10:17:39;10.50;;;4.63;;
56413;SDS011;42318;48.452;19.526;2023-12-20T10:20:40;8.75;;;4.47;;
56413;SDS011;42318;48.452;19.526;2023-12-20T10:23:41;8.25;;;4.38;;
56413;SDS011;42318;48.452;19.526;2023-12-20T10:26:42;8.02;;;4.75;;
56413;SDS011;42318;48.452;19.526;2023-12-20T10:29:42;7.35;;;4.15;;
56413;SDS011;42318;48.452;19.526;2023-12-20T10:32:43;7.20;;;4.35;;
56413;SDS011;42318;48.452;19.526;2023-12-20T10:35:44;7.80;;;4.35;;
56413;SDS011;42318;48.452;19.526;2023-12-20T10:38:44;8.32;;;4.15;;
56413;SDS011;42318;48.452;19.526;2023-12-20T10:41:47;7.57;;;4.35;;
56413;SDS011;42318;48.452;19.526;2023-12-20T10:44:49;8.55;;;4.38;;
56413;SDS011;42318;48.452;19.526;2023-12-20T10:47:51;9.73;;;4.47;;
56413;SDS011;42318;48.452;19.526;2023-12-20T10:50:52;8.38;;;4.40;;
56413;SDS011;42318;48.452;19.526;2023-12-20T10:53:55;9.77;;;3.85;;
56413;SDS011;42318;48.452;19.526;2023-12-20T10:56:57;7.82;;;4.50;;
56413;SDS011;42318;48.452;19.526;2023-12-20T11:00:00;6.55;;;4.30;;
56413;SDS011;42318;48.452;19.526;2023-12-20T11:03:04;5.63;;;3.83;;
56413;SDS011;42318;48.452;19.526;2023-12-20T11:06:10;6.40;;;4.18;;
56413;SDS011;42318;48.452;19.526;2023-12-20T11:15:56;8.23;;;3.92;;
56413;SDS011;42318;48.452;19.526;2023-12-20T11:18:57;6.88;;;4.60;;
56413;SDS011;42318;48.452;19.526;2023-12-20T11:21:58;6.03;;;4.43;;
56413;SDS011;42318;48.452;19.526;2023-12-20T11:25:02;7.10;;;4.65;;
56413;SDS011;42318;48.452;19.526;2023-12-20T11:28:07;7.88;;;4.78;;
56413;SDS011;42318;48.452;19.526;2023-12-20T11:31:09;8.10;;;4.15;;
56413;SDS011;42318;48.452;19.526;2023-12-20T11:34:14;8.82;;;4.82;;
56413;SDS011;42318;48.452;19.526;2023-12-20T11:37:15;7.53;;;4.80;;
56413;SDS011;42318;48.452;19.526;2023-12-20T11:40:16;7.28;;;3.83;;
56413;SDS011;42318;48.452;19.526;2023-12-20T11:43:31;9.40;;;4.43;;
56413;SDS011;42318;48.452;19.526;2023-12-20T11:46:35;8.52;;;4.22;;
56413;SDS011;42318;48.452;19.526;2023-12-20T11:49:35;6.57;;;4.22;;
56413;SDS011;42318;48.452;19.526;2023-12-20T11:52:36;5.88;;;3.97;;
56413;SDS011;42318;48.452;19.526;2023-12-20T11:55:37;6.97;;;4.32;;
56413;SDS011;42318;48.452;19.526;2023-12-20T11:58:38;5.97;;;3.90;;
56413;SDS011;42318;48.452;19.526;2023-12-20T12:01:38;7.07;;;4.38;;
56413;SDS011;42318;48.452;19.526;2023-12-20T12:04:42;9.90;;;4.68;;
56413;SDS011;42318;48.452;19.526;2023-12-20T12:07:43;7.33;;;4.43;;
56413;SDS011;42318;48.452;19.526;2023-12-20T12:10:44;9.05;;;5.28;;
56413;SDS011;42318;48.452;19.526;2023-12-20T12:13:45;9.15;;;4.78;;
56413;SDS011;42318;48.452;19.526;2023-12-20T12:16:46;5.70;;;4.18;;
56413;SDS011;42318;48.452;19.526;2023-12-20T12:19:47;7.07;;;4.40;;
56413;SDS011;42318;48.452;19.526;2023-12-20T12:23:00;7.55;;;4.82;;
56413;SDS011;42318;48.452;19.526;2023-12-20T12:26:05;7.72;;;5.28;;
56413;SDS011;42318;48.452;19.526;2023-12-20T12:29:09;6.93;;;4.28;;
56413;SDS011;42318;48.452;19.526;2023-12-20T12:32:10;6.60;;;4.88;;
56413;SDS011;42318;48.452;19.526;2023-12-20T12:35:10;6.60;;;4.03;;
56413;SDS011;42318;48.452;19.526;2023-12-20T12:38:11;8.38;;;5.15;;
56413;SDS011;42318;48.452;19.526;2023-12-20T12:41:12;5.65;;;4.22;;
56413;SDS011;42318;48.452;19.526;2023-12-20T12:44:15;7.53;;;5.05;;
56413;SDS011;42318;48.452;19.526;2023-12-20T12:47:16;6.13;;;4.50;;
56413;SDS011;42318;48.452;19.526;2023-12-20T12:50:17;7.40;;;4.53;;
56413;SDS011;42318;48.452;19.526;2023-12-20T12:53:17;7.55;;;4.45;;
56413;SDS011;42318;48.452;19.526;2023-12-20T12:56:18;6.13;;;4.40;;
56413;SDS011;42318;48.452;19.526;2023-12-20T12:59:19;7.95;;;4.50;;
56413;SDS011;42318;48.452;19.526;2023-12-20T13:02:20;5.18;;;3.90;;
56413;SDS011;42318;48.452;19.526;2023-12-20T13:05:20;7.90;;;5.18;;
56413;SDS011;42318;48.452;19.526;2023-12-20T13:08:21;5.55;;;4.20;;
56413;SDS011;42318;48.452;19.526;2023-12-20T13:11:22;10.73;;;5.53;;
56413;SDS011;42318;48.452;19.526;2023-12-20T13:14:22;6.43;;;4.25;;
56413;SDS011;42318;48.452;19.526;2023-12-20T13:17:23;8.35;;;4.63;;
56413;SDS011;42318;48.452;19.526;2023-12-20T13:20:24;6.13;;;3.90;;
56413;SDS011;42318;48.452;19.526;2023-12-20T13:23:24;6.93;;;4.70;;
56413;SDS011;42318;48.452;19.526;2023-12-20T13:26:25;6.65;;;4.72;;
56413;SDS011;42318;48.452;19.526;2023-12-20T13:29:26;7.35;;;4.97;;
56413;SDS011;42318;48.452;19.526;2023-12-20T13:32:29;6.45;;;4.72;;
56413;SDS011;42318;48.452;19.526;2023-12-20T13:35:30;6.10;;;4.20;;
56413;SDS011;42318;48.452;19.526;2023-12-20T13:38:30;5.72;;;4.40;;
56413;SDS011;42318;48.452;19.526;2023-12-20T13:41:31;7.20;;;4.78;;
56413;SDS011;42318;48.452;19.526;2023-12-20T13:44:32;8.45;;;4.93;;
56413;SDS011;42318;48.452;19.526;2023-12-20T13:47:33;7.90;;;4.65;;
56413;SDS011;42318;48.452;19.526;2023-12-20T13:50:34;6.03;;;4.45;;
56413;SDS011;42318;48.452;19.526;2023-12-20T13:53:34;8.48;;;4.38;;
56413;SDS011;42318;48.452;19.526;2023-12-20T13:56:35;6.10;;;4.50;;
56413;SDS011;42318;48.452;19.526;2023-12-20T13:59:36;6.00;;;4.40;;
56413;SDS011;42318;48.452;19.526;2023-12-20T14:02:37;7.05;;;4.70;;
56413;SDS011;42318;48.452;19.526;2023-12-20T14:05:38;5.60;;;4.28;;
56413;SDS011;42318;48.452;19.526;2023-12-20T14:08:39;9.00;;;5.28;;
56413;SDS011;42318;48.452;19.526;2023-12-20T14:11:40;6.80;;;4.78;;
56413;SDS011;42318;48.452;19.526;2023-12-20T14:14:41;6.57;;;4.10;;
56413;SDS011;42318;48.452;19.526;2023-12-20T14:17:42;6.50;;;4.60;;
56413;SDS011;42318;48.452;19.526;2023-12-20T14:20:43;5.10;;;3.95;;
56413;SDS011;42318;48.452;19.526;2023-12-20T14:23:44;5.75;;;3.92;;
56413;SDS011;42318;48.452;19.526;2023-12-20T14:26:46;6.18;;;4.07;;
56413;SDS011;42318;48.452;19.526;2023-12-20T14:29:47;5.78;;;4.22;;
56413;SDS011;42318;48.452;19.526;2023-12-20T14:32:48;5.63;;;4.05;;
56413;SDS011;42318;48.452;19.526;2023-12-20T14:35:48;6.95;;;4.32;;
56413;SDS011;42318;48.452;19.526;2023-12-20T14:38:49;6.13;;;4.43;;
56413;SDS011;42318;48.452;19.526;2023-12-20T14:41:51;7.13;;;4.68;;
56413;SDS011;42318;48.452;19.526;2023-12-20T14:44:52;6.55;;;5.10;;
56413;SDS011;42318;48.452;19.526;2023-12-20T14:47:54;6.55;;;4.10;;
56413;SDS011;42318;48.452;19.526;2023-12-20T14:50:55;7.40;;;4.25;;
56413;SDS011;42318;48.452;19.526;2023-12-20T14:53:56;7.28;;;4.75;;
56413;SDS011;42318;48.452;19.526;2023-12-20T14:56:57;7.03;;;4.57;;
56413;SDS011;42318;48.452;19.526;2023-12-20T14:59:59;6.03;;;4.53;;
56413;SDS011;42318;48.452;19.526;2023-12-20T15:02:59;7.30;;;4.78;;
56413;SDS011;42318;48.452;19.526;2023-12-20T15:06:00;8.85;;;4.45;;
56413;SDS011;42318;48.452;19.526;2023-12-20T15:09:01;7.15;;;4.47;;
56413;SDS011;42318;48.452;19.526;2023-12-20T15:12:05;7.85;;;4.95;;
56413;SDS011;42318;48.452;19.526;2023-12-20T15:15:06;8.18;;;4.68;;
56413;SDS011;42318;48.452;19.526;2023-12-20T15:18:09;6.97;;;4.57;;
56413;SDS011;42318;48.452;19.526;2023-12-20T15:21:10;7.82;;;5.07;;
56413;SDS011;42318;48.452;19.526;2023-12-20T15:24:11;8.48;;;5.30;;
56413;SDS011;42318;48.452;19.526;2023-12-20T15:27:16;8.13;;;5.18;;
56413;SDS011;42318;48.452;19.526;2023-12-20T15:30:17;7.53;;;4.97;;
56413;SDS011;42318;48.452;19.526;2023-12-20T15:33:18;6.50;;;4.60;;
56413;SDS011;42318;48.452;19.526;2023-12-20T15:36:19;10.05;;;6.05;;
56413;SDS011;42318;48.452;19.526;2023-12-20T15:39:19;6.63;;;4.97;;
56413;SDS011;42318;48.452;19.526;2023-12-20T15:42:20;6.55;;;5.15;;
56413;SDS011;42318;48.452;19.526;2023-12-20T15:45:21;7.07;;;4.78;;
56413;SDS011;42318;48.452;19.526;2023-12-20T15:48:21;7.15;;;4.20;;
56413;SDS011;42318;48.452;19.526;2023-12-20T15:51:28;6.88;;;4.50;;
56413;SDS011;42318;48.452;19.526;2023-12-20T15:54:29;9.00;;;4.68;;
56413;SDS011;42318;48.452;19.526;2023-12-20T15:57:31;6.18;;;4.43;;
56413;SDS011;42318;48.452;19.526;2023-12-20T16:00:31;8.05;;;4.97;;
56413;SDS011;42318;48.452;19.526;2023-12-20T16:03:32;8.88;;;4.88;;
56413;SDS011;42318;48.452;19.526;2023-12-20T16:06:33;7.35;;;4.57;;
56413;SDS011;42318;48.452;19.526;2023-12-20T16:09:35;7.82;;;4.90;;
56413;SDS011;42318;48.452;19.526;2023-12-20T16:12:35;9.10;;;4.60;;
56413;SDS011;42318;48.452;19.526;2023-12-20T16:15:36;6.45;;;4.80;;
56413;SDS011;42318;48.452;19.526;2023-12-20T16:18:36;7.38;;;4.45;;
56413;SDS011;42318;48.452;19.526;2023-12-20T16:21:37;7.32;;;4.78;;
56413;SDS011;42318;48.452;19.526;2023-12-20T16:24:38;7.32;;;5.05;;
56413;SDS011;42318;48.452;19.526;2023-12-20T16:27:39;6.97;;;4.70;;
56413;SDS011;42318;48.452;19.526;2023-12-20T16:30:40;7.53;;;4.55;;
56413;SDS011;42318;48.452;19.526;2023-12-20T16:33:41;7.97;;;4.72;;
56413;SDS011;42318;48.452;19.526;2023-12-20T16:36:51;6.28;;;4.63;;
56413;SDS011;42318;48.452;19.526;2023-12-20T16:39:54;6.55;;;4.43;;
56413;SDS011;42318;48.452;19.526;2023-12-20T16:42:55;6.90;;;4.43;;
56413;SDS011;42318;48.452;19.526;2023-12-20T16:45:58;8.20;;;4.47;;
56413;SDS011;42318;48.452;19.526;2023-12-20T16:48:59;8.15;;;4.68;;
56413;SDS011;42318;48.452;19.526;2023-12-20T16:52:00;6.57;;;3.83;;
56413;SDS011;42318;48.452;19.526;2023-12-20T16:55:00;5.82;;;4.20;;
56413;SDS011;42318;48.452;19.526;2023-12-20T16:58:01;6.30;;;4.50;;
56413;SDS011;42318;48.452;19.526;2023-12-20T17:01:02;8.57;;;4.60;;
56413;SDS011;42318;48.452;19.526;2023-12-20T17:04:03;7.25;;;4.55;;
56413;SDS011;42318;48.452;19.526;2023-12-20T17:07:04;6.65;;;4.30;;
56413;SDS011;42318;48.452;19.526;2023-12-20T17:10:05;6.15;;;4.38;;
56413;SDS011;42318;48.452;19.526;2023-12-20T17:13:06;5.32;;;3.95;;
56413;SDS011;42318;48.452;19.526;2023-12-20T17:16:07;6.95;;;4.50;;
56413;SDS011;42318;48.452;19.526;2023-12-20T17:19:08;6.25;;;3.95;;
56413;SDS011;42318;48.452;19.526;2023-12-20T17:22:09;7.30;;;4.97;;
56413;SDS011;42318;48.452;19.526;2023-12-20T17:25:09;6.25;;;4.10;;
56413;SDS011;42318;48.452;19.526;2023-12-20T17:28:11;5.80;;;4.15;;
56413;SDS011;42318;48.452;19.526;2023-12-20T17:31:12;5.40;;;4.22;;
56413;SDS011;42318;48.452;19.526;2023-12-20T17:34:13;7.55;;;4.20;;
56413;SDS011;42318;48.452;19.526;2023-12-20T17:37:13;6.22;;;4.30;;
56413;SDS011;42318;48.452;19.526;2023-12-20T17:40:14;6.85;;;3.78;;
56413;SDS011;42318;48.452;19.526;2023-12-20T17:43:15;6.40;;;4.28;;
56413;SDS011;42318;48.452;19.526;2023-12-20T17:46:16;5.85;;;4.35;;
56413;SDS011;42318;48.452;19.526;2023-12-20T17:49:16;6.95;;;4.15;;
56413;SDS011;42318;48.452;19.526;2023-12-20T17:52:20;7.15;;;4.43;;
56413;SDS011;42318;48.452;19.526;2023-12-20T17:55:20;7.43;;;4.50;;
56413;SDS011;42318;48.452;19.526;2023-12-20T17:58:21;7.70;;;4.45;;
56413;SDS011;42318;48.452;19.526;2023-12-20T18:01:21;6.00;;;4.53;;